Time;durP1;ratioP1;P1;durP2;ratioP2;P2;SDS_P1;SDS_P2;PMS_P1;PMS_P2;Temp;Humidity;BMP_temperature;BMP_pressure;BME280_temperature;BME280_humidity;BME280_pressure;Samples;Min_cycle;Max_cycle;Signal;HPM_P1;HPM_P2
2021/09/12 00:00:09;;;;;;;19.00;13.30;;;18.10;99.90;;;;;;5091283;28;20184;-87
2021/09/12 00:02:36;;;;;;;18.90;14.50;;;18.10;99.90;;;;;;5092446;28;20214;-87
2021/09/12 00:05:03;;;;;;;17.53;13.03;;;18.10;99.90;;;;;;5092538;28;20434;-87
2021/09/12 00:07:28;;;;;;;20.77;13.70;;;18.00;99.90;;;;;;5101838;28;20431;-87
2021/09/12 00:09:54;;;;;;;24.60;16.10;;;18.00;99.90;;;;;;5068412;28;20420;-87
2021/09/12 00:12:20;;;;;;;19.77;14.67;;;18.00;99.90;;;;;;5077364;28;20186;-87
2021/09/12 00:14:45;;;;;;;25.00;17.03;;;18.10;99.90;;;;;;5089844;28;20200;-88
2021/09/12 00:17:11;;;;;;;20.93;16.67;;;18.10;99.90;;;;;;5090211;28;20589;-87
2021/09/12 00:19:37;;;;;;;17.57;13.97;;;18.20;99.90;;;;;;5089081;28;20177;-87
2021/09/12 00:22:03;;;;;;;25.27;15.43;;;18.10;99.90;;;;;;5077560;28;20229;-87
2021/09/12 00:24:29;;;;;;;25.53;16.73;;;18.10;99.90;;;;;;5076288;28;20227;-87
2021/09/12 00:26:54;;;;;;;28.70;18.47;;;18.10;99.90;;;;;;5080364;28;20924;-88
2021/09/12 00:29:20;;;;;;;25.17;17.77;;;18.00;99.90;;;;;;5090424;28;20230;-88
2021/09/12 00:31:47;;;;;;;31.77;18.67;;;18.00;99.90;;;;;;5101999;28;20171;-88
2021/09/12 00:34:14;;;;;;;25.40;18.03;;;18.00;99.90;;;;;;5094047;28;20176;-88
2021/09/12 00:36:40;;;;;;;24.50;17.70;;;18.00;99.90;;;;;;5091930;28;20613;-88
2021/09/12 00:39:05;;;;;;;25.97;17.30;;;18.00;99.90;;;;;;5090491;28;20490;-87
2021/09/12 00:41:42;;;;;;;26.60;17.03;;;18.00;99.90;;;;;;5086409;28;20445;-88
2021/09/12 00:44:10;;;;;;;27.03;18.33;;;18.00;99.90;;;;;;5099782;28;20176;-87
2021/09/12 00:46:42;;;;;;;22.83;16.53;;;18.10;99.90;;;;;;5089286;28;20545;-87
2021/09/12 00:49:08;;;;;;;30.63;20.13;;;18.00;99.90;;;;;;5095259;28;20421;-87
2021/09/12 00:51:35;;;;;;;27.43;18.10;;;18.00;99.90;;;;;;5092974;28;20419;-87
2021/09/12 00:54:04;;;;;;;29.97;19.27;;;18.00;99.90;;;;;;5088704;28;20503;-87
2021/09/12 00:56:32;;;;;;;28.43;17.70;;;18.00;99.90;;;;;;5092895;28;20443;-88
2021/09/12 00:59:01;;;;;;;30.63;20.50;;;18.00;99.90;;;;;;5084603;28;20422;-88
2021/09/12 01:01:27;;;;;;;31.00;21.63;;;18.00;99.90;;;;;;5088757;28;20438;-88
2021/09/12 01:03:53;;;;;;;34.67;20.03;;;18.00;99.90;;;;;;5087967;28;20418;-88
2021/09/12 01:06:20;;;;;;;33.70;21.90;;;18.00;99.90;;;;;;5066667;28;20451;-87
2021/09/12 01:08:46;;;;;;;37.63;23.37;;;18.10;99.90;;;;;;5088462;28;20419;-87
2021/09/12 01:11:12;;;;;;;35.63;22.23;;;18.00;99.90;;;;;;5084536;28;20458;-88
2021/09/12 01:13:42;;;;;;;30.70;20.10;;;18.00;99.90;;;;;;5090772;28;20177;-88
2021/09/12 01:16:12;;;;;;;29.67;20.17;;;18.00;99.90;;;;;;5084129;28;20480;-88
2021/09/12 01:18:39;;;;;;;34.10;22.97;;;18.00;99.90;;;;;;5091658;28;20899;-88
2021/09/12 01:21:06;;;;;;;31.97;20.57;;;18.00;99.90;;;;;;5073601;28;20896;-88
2021/09/12 01:23:31;;;;;;;27.87;19.70;;;18.00;99.90;;;;;;5065189;28;20440;-88
2021/09/12 01:25:57;;;;;;;30.17;19.60;;;17.90;99.90;;;;;;5075737;28;20931;-88
2021/09/12 01:28:23;;;;;;;39.10;22.00;;;17.90;99.90;;;;;;5089286;28;20187;-88
2021/09/12 01:30:48;;;;;;;35.70;22.83;;;17.90;99.90;;;;;;5086495;28;20210;-88
2021/09/12 01:33:14;;;;;;;35.57;22.10;;;17.90;99.90;;;;;;5070785;28;20169;-87
2021/09/12 01:35:40;;;;;;;34.20;23.13;;;17.90;99.90;;;;;;5074621;28;20176;-88
2021/09/12 01:38:05;;;;;;;33.17;21.80;;;18.00;99.90;;;;;;5084806;28;20179;-88
2021/09/12 01:40:31;;;;;;;35.70;21.70;;;18.00;99.90;;;;;;5082551;28;20169;-88
2021/09/12 01:43:00;;;;;;;37.93;22.63;;;18.00;99.90;;;;;;5087268;28;20187;-88
2021/09/12 01:45:26;;;;;;;33.80;21.27;;;18.00;99.90;;;;;;5098598;28;20208;-87
2021/09/12 01:47:58;;;;;;;40.00;24.50;;;17.90;99.90;;;;;;5091354;28;20483;-87
2021/09/12 01:50:24;;;;;;;38.77;23.53;;;17.90;99.90;;;;;;5088068;28;20462;-88
2021/09/12 01:52:50;;;;;;;33.17;19.80;;;17.90;99.90;;;;;;5091020;28;20506;-88
2021/09/12 01:55:16;;;;;;;35.37;23.00;;;17.90;99.90;;;;;;5096406;28;20414;-88
2021/09/12 01:57:41;;;;;;;31.07;19.80;;;17.80;99.90;;;;;;5096278;28;20184;-87
2021/09/12 02:00:07;;;;;;;24.70;17.57;;;17.80;99.90;;;;;;5088586;28;20188;-88
2021/09/12 02:02:33;;;;;;;34.00;20.67;;;17.80;99.90;;;;;;5087758;28;20231;-88
2021/09/12 02:05:00;;;;;;;34.90;21.60;;;17.80;99.90;;;;;;5088870;28;20422;-88
2021/09/12 02:07:25;;;;;;;34.30;21.47;;;17.80;99.90;;;;;;5074877;28;20177;-88
2021/09/12 02:09:51;;;;;;;30.13;20.67;;;17.80;99.90;;;;;;5082664;28;20432;-88
2021/09/12 02:12:17;;;;;;;30.43;21.33;;;17.80;99.90;;;;;;5080161;28;20175;-88
2021/09/12 02:14:42;;;;;;;33.73;21.73;;;17.80;99.90;;;;;;5092404;28;20196;-88
2021/09/12 02:17:08;;;;;;;34.07;22.23;;;17.80;99.90;;;;;;5085655;28;20185;-88
2021/09/12 02:19:34;;;;;;;28.73;20.50;;;17.90;99.90;;;;;;5085816;28;20259;-88
2021/09/12 02:21:59;;;;;;;42.03;25.23;;;17.80;99.90;;;;;;5085332;28;20180;-88
2021/09/12 02:24:25;;;;;;;37.53;22.67;;;17.80;99.90;;;;;;5083730;28;20236;-88
2021/09/12 02:26:51;;;;;;;34.30;21.20;;;17.80;99.90;;;;;;5081656;28;20188;-88
2021/09/12 02:29:16;;;;;;;33.70;21.50;;;17.80;99.90;;;;;;5086950;28;20172;-88
2021/09/12 02:31:42;;;;;;;30.33;20.97;;;17.80;99.90;;;;;;5087377;28;20177;-88
2021/09/12 02:34:08;;;;;;;29.73;19.63;;;17.80;99.90;;;;;;5081289;28;20173;-87
2021/09/12 02:36:33;;;;;;;33.30;21.10;;;17.80;99.90;;;;;;5088084;28;20600;-88
2021/09/12 02:38:59;;;;;;;29.57;19.03;;;17.80;99.90;;;;;;5091934;28;20194;-88
2021/09/12 02:41:25;;;;;;;29.87;21.00;;;17.80;99.90;;;;;;5093697;28;20690;-88
2021/09/12 02:43:50;;;;;;;32.37;21.33;;;17.80;99.90;;;;;;5102757;28;20168;-88
2021/09/12 02:46:16;;;;;;;33.37;20.80;;;17.80;99.90;;;;;;5088542;28;20204;-88
2021/09/12 02:48:42;;;;;;;38.47;22.17;;;17.80;99.90;;;;;;5089640;28;20176;-88
2021/09/12 02:51:08;;;;;;;33.40;20.70;;;17.80;99.90;;;;;;5086571;28;20207;-88
2021/09/12 02:53:34;;;;;;;41.90;23.17;;;17.80;99.90;;;;;;5087094;28;20539;-88
2021/09/12 02:55:59;;;;;;;35.43;20.77;;;17.80;99.90;;;;;;5085774;28;20445;-88
2021/09/12 02:58:25;;;;;;;26.47;17.47;;;17.80;99.90;;;;;;5077849;28;20169;-88
2021/09/12 03:00:50;;;;;;;30.80;20.00;;;17.80;99.90;;;;;;5089781;28;20184;-88
2021/09/12 03:03:16;;;;;;;32.03;21.10;;;17.80;99.90;;;;;;5087254;28;20188;-88
2021/09/12 03:05:42;;;;;;;30.70;20.80;;;17.80;99.90;;;;;;5086869;28;20207;-88
2021/09/12 03:08:08;;;;;;;29.00;21.33;;;17.80;99.90;;;;;;5087495;28;20179;-88
2021/09/12 03:10:33;;;;;;;28.80;20.20;;;17.80;99.90;;;;;;5087363;28;20227;-88
2021/09/12 03:12:59;;;;;;;34.20;23.00;;;17.80;99.90;;;;;;5086435;28;20187;-88
2021/09/12 03:15:25;;;;;;;30.63;20.37;;;17.70;99.90;;;;;;5087297;28;20176;-88
2021/09/12 03:17:50;;;;;;;31.37;19.80;;;17.70;99.90;;;;;;5086138;28;20169;-88
2021/09/12 03:20:17;;;;;;;27.90;20.17;;;17.70;99.90;;;;;;5099641;28;20179;-88
2021/09/12 03:22:42;;;;;;;31.03;20.90;;;17.70;99.90;;;;;;5076735;28;20223;-88
2021/09/12 03:25:08;;;;;;;29.60;19.53;;;17.80;99.90;;;;;;5088133;28;20418;-88
2021/09/12 03:27:34;;;;;;;35.30;22.07;;;17.80;99.90;;;;;;5086266;28;20613;-88
2021/09/12 03:30:00;;;;;;;35.50;21.73;;;17.80;99.90;;;;;;5082961;28;20414;-88
2021/09/12 03:32:26;;;;;;;36.50;22.40;;;17.80;99.90;;;;;;5090849;28;20169;-88
2021/09/12 03:34:51;;;;;;;29.43;20.37;;;17.80;99.90;;;;;;5092618;28;20229;-88
2021/09/12 03:37:17;;;;;;;31.63;19.37;;;17.80;99.90;;;;;;5089460;28;20188;-88
2021/09/12 03:39:43;;;;;;;31.37;19.57;;;17.70;99.90;;;;;;5103153;28;20221;-88
2021/09/12 03:42:09;;;;;;;28.20;20.37;;;17.70;99.90;;;;;;5092785;28;20177;-88
2021/09/12 03:44:34;;;;;;;36.43;22.27;;;17.70;99.90;;;;;;5083076;28;20177;-88
2021/09/12 03:47:00;;;;;;;34.70;21.40;;;17.70;99.90;;;;;;5094066;28;20201;-88
2021/09/12 03:49:26;;;;;;;36.87;21.40;;;17.60;99.90;;;;;;5089819;28;20173;-88
2021/09/12 03:51:51;;;;;;;26.20;18.13;;;17.60;99.90;;;;;;5098789;28;20483;-88
2021/09/12 03:54:17;;;;;;;30.10;19.33;;;17.60;99.90;;;;;;5089706;28;20330;-88
2021/09/12 03:56:43;;;;;;;29.73;19.73;;;17.60;99.90;;;;;;5094034;28;20199;-88
2021/09/12 03:59:08;;;;;;;31.03;20.00;;;17.60;99.90;;;;;;5106287;28;20670;-88
2021/09/12 04:01:34;;;;;;;28.97;19.20;;;17.50;99.90;;;;;;5107662;28;20176;-88
2021/09/12 04:04:00;;;;;;;33.23;19.37;;;17.50;99.90;;;;;;5112488;28;20160;-88
2021/09/12 04:06:25;;;;;;;24.00;17.20;;;17.50;99.90;;;;;;5092693;28;20211;-88
2021/09/12 04:08:53;;;;;;;32.17;20.00;;;17.50;99.90;;;;;;5110226;28;20478;-88
2021/09/12 04:11:19;;;;;;;29.87;19.90;;;17.40;99.90;;;;;;5093234;28;20191;-88
2021/09/12 04:13:45;;;;;;;30.70;20.67;;;17.40;99.90;;;;;;5096707;28;20422;-88
2021/09/12 04:16:10;;;;;;;27.50;18.30;;;17.40;99.90;;;;;;5092442;28;20185;-88
2021/09/12 04:18:37;;;;;;;27.60;18.50;;;17.40;99.90;;;;;;5095827;28;20239;-88
2021/09/12 04:21:03;;;;;;;32.23;21.57;;;17.40;99.90;;;;;;5102134;28;20180;-88
2021/09/12 04:23:29;;;;;;;33.17;19.60;;;17.30;99.90;;;;;;5094701;28;20430;-88
2021/09/12 04:25:55;;;;;;;27.77;17.73;;;17.30;99.90;;;;;;5093083;28;20567;-88
2021/09/12 04:28:20;;;;;;;30.83;20.17;;;17.30;99.90;;;;;;5095756;28;20183;-88
2021/09/12 04:30:46;;;;;;;32.30;20.83;;;17.30;99.90;;;;;;5091155;28;20199;-88
2021/09/12 04:33:12;;;;;;;29.43;19.20;;;17.20;99.90;;;;;;5090644;28;20597;-88
2021/09/12 04:35:37;;;;;;;33.07;19.80;;;17.20;99.90;;;;;;5092097;28;20756;-88
2021/09/12 04:38:03;;;;;;;27.00;17.60;;;17.20;99.90;;;;;;5090569;28;20206;-88
2021/09/12 04:40:31;;;;;;;29.57;19.17;;;17.20;99.90;;;;;;5091025;28;20168;-88
2021/09/12 04:42:56;;;;;;;38.23;22.50;;;17.20;99.90;;;;;;5080517;28;20491;-88
2021/09/12 04:45:22;;;;;;;31.00;19.53;;;17.30;99.90;;;;;;5102840;28;20447;-88
2021/09/12 04:47:48;;;;;;;35.13;20.60;;;17.30;99.90;;;;;;5093015;28;20218;-87
2021/09/12 04:50:13;;;;;;;32.93;20.33;;;17.30;99.90;;;;;;5092418;28;20176;-88
2021/09/12 04:52:39;;;;;;;36.07;22.57;;;17.30;99.90;;;;;;5087503;28;20182;-88
2021/09/12 04:55:05;;;;;;;34.27;20.10;;;17.30;99.90;;;;;;5089164;28;20222;-88
2021/09/12 04:57:31;;;;;;;35.67;22.27;;;17.30;99.90;;;;;;5092453;28;20195;-88
2021/09/12 04:59:57;;;;;;;38.40;23.67;;;17.30;99.90;;;;;;5085919;28;20403;-88
2021/09/12 05:02:22;;;;;;;30.10;18.10;;;17.30;99.90;;;;;;5080188;28;20679;-88
2021/09/12 05:04:48;;;;;;;31.90;20.93;;;17.30;99.90;;;;;;5086897;28;20184;-88
2021/09/12 05:07:14;;;;;;;33.10;20.57;;;17.30;99.90;;;;;;5091195;28;20196;-88
2021/09/12 05:09:39;;;;;;;31.60;20.00;;;17.30;99.90;;;;;;5096832;28;20145;-88
2021/09/12 05:12:05;;;;;;;28.67;19.80;;;17.30;99.90;;;;;;5101351;28;20176;-88
2021/09/12 05:14:31;;;;;;;29.77;19.83;;;17.30;99.90;;;;;;5107644;28;20198;-88
2021/09/12 05:16:57;;;;;;;34.60;21.23;;;17.30;99.90;;;;;;5093284;28;20425;-88
2021/09/12 05:19:23;;;;;;;31.97;21.20;;;17.40;99.90;;;;;;5092076;28;20185;-88
2021/09/12 05:21:48;;;;;;;27.83;18.90;;;17.40;99.90;;;;;;5093280;28;20184;-88
2021/09/12 05:24:14;;;;;;;29.20;18.80;;;17.40;99.90;;;;;;5088472;28;20180;-88
2021/09/12 05:26:40;;;;;;;35.60;21.17;;;17.30;99.90;;;;;;5091990;28;20209;-88
2021/09/12 05:29:06;;;;;;;30.27;19.37;;;17.40;99.90;;;;;;5088942;28;20427;-88
2021/09/12 05:31:32;;;;;;;28.83;18.10;;;17.40;99.90;;;;;;5085465;28;20197;-88
2021/09/12 05:33:57;;;;;;;32.93;20.10;;;17.40;99.90;;;;;;5091532;28;20195;-88
2021/09/12 05:36:23;;;;;;;35.30;22.20;;;17.40;99.90;;;;;;5092388;28;20183;-88
2021/09/12 05:38:50;;;;;;;29.70;19.37;;;17.40;99.90;;;;;;5092696;28;20187;-88
2021/09/12 05:41:16;;;;;;;39.63;23.63;;;17.40;99.90;;;;;;5090769;28;20437;-88
2021/09/12 05:43:41;;;;;;;38.73;23.23;;;17.40;99.90;;;;;;5091110;28;20438;-88
2021/09/12 05:46:07;;;;;;;36.27;21.37;;;17.40;99.90;;;;;;5091727;28;20504;-88
2021/09/12 05:48:33;;;;;;;36.93;20.50;;;17.40;99.90;;;;;;5094276;28;20168;-88
2021/09/12 05:50:58;;;;;;;36.27;21.30;;;17.40;99.90;;;;;;5089748;28;20262;-88
2021/09/12 05:53:25;;;;;;;38.20;21.47;;;17.50;99.90;;;;;;5084761;28;20168;-88
2021/09/12 05:55:51;;;;;;;30.80;20.27;;;17.50;99.90;;;;;;5092143;28;20156;-88
2021/09/12 05:58:31;;;;;;;44.17;26.37;;;17.50;99.90;;;;;;5095225;28;20399;-88
2021/09/12 06:00:56;;;;;;;34.87;21.67;;;17.50;99.90;;;;;;5089751;28;20156;-88
2021/09/12 06:03:22;;;;;;;37.40;23.40;;;17.60;99.90;;;;;;5082833;28;20541;-89
2021/09/12 06:05:48;;;;;;;37.37;22.77;;;17.60;99.90;;;;;;5088798;28;20268;-89
2021/09/12 06:08:13;;;;;;;32.10;21.83;;;17.60;99.90;;;;;;5085282;28;20183;-89
2021/09/12 06:10:39;;;;;;;36.13;21.77;;;17.60;99.90;;;;;;5091424;28;20187;-89
2021/09/12 06:13:05;;;;;;;33.83;21.40;;;17.60;99.90;;;;;;5088012;28;20245;-89
2021/09/12 06:15:30;;;;;;;31.80;20.17;;;17.60;99.90;;;;;;5091600;28;20271;-89
2021/09/12 06:17:56;;;;;;;41.53;24.03;;;17.60;99.90;;;;;;5091566;28;20232;-90
2021/09/12 06:20:22;;;;;;;33.33;20.77;;;17.70;99.90;;;;;;5089337;28;20188;-89
2021/09/12 06:22:51;;;;;;;42.57;24.70;;;17.70;99.90;;;;;;5087963;28;20167;-89
2021/09/12 06:25:16;;;;;;;33.07;22.63;;;17.80;99.90;;;;;;5090578;28;20435;-89
2021/09/12 06:27:42;;;;;;;39.57;24.00;;;17.80;99.90;;;;;;5087609;28;20423;-89
2021/09/12 06:30:10;;;;;;;38.87;23.53;;;17.90;99.90;;;;;;5088956;28;20198;-90
2021/09/12 06:32:36;;;;;;;41.23;24.43;;;17.90;99.90;;;;;;5088576;28;20449;-90
2021/09/12 06:35:03;;;;;;;39.37;23.77;;;17.80;99.90;;;;;;5094742;28;20430;-89
2021/09/12 06:37:29;;;;;;;39.13;23.70;;;17.90;99.90;;;;;;5085677;28;20424;-89
2021/09/12 06:39:54;;;;;;;38.63;23.50;;;17.80;99.90;;;;;;5069870;28;20422;-89
2021/09/12 06:42:20;;;;;;;38.40;21.93;;;17.90;99.90;;;;;;5099554;28;20181;-90
2021/09/12 06:44:46;;;;;;;40.27;24.03;;;17.90;99.90;;;;;;5091680;28;20172;-90
2021/09/12 06:47:12;;;;;;;42.13;24.50;;;17.90;99.90;;;;;;5090935;28;20184;-90
2021/09/12 06:49:37;;;;;;;38.83;22.97;;;17.90;99.90;;;;;;5092444;28;20496;-90
2021/09/12 06:52:04;;;;;;;41.50;23.63;;;17.90;99.90;;;;;;5095514;28;20206;-90
2021/09/12 06:54:29;;;;;;;34.63;22.73;;;18.00;99.90;;;;;;5091086;28;20167;-90
2021/09/12 06:56:55;;;;;;;44.70;25.93;;;18.00;99.90;;;;;;5094605;28;20442;-90
2021/09/12 06:59:20;;;;;;;38.43;23.30;;;18.00;99.90;;;;;;5103157;28;20222;-90
2021/09/12 07:01:46;;;;;;;41.20;25.23;;;18.00;99.90;;;;;;5051126;28;1146283;-89
2021/09/12 07:04:12;;;;;;;42.93;24.30;;;18.10;99.90;;;;;;5093376;28;20494;-88
2021/09/12 07:06:38;;;;;;;49.43;24.90;;;18.10;99.90;;;;;;5092734;28;20191;-90
2021/09/12 07:09:04;;;;;;;42.23;25.17;;;18.10;99.90;;;;;;5097100;28;20469;-90
2021/09/12 07:11:30;;;;;;;38.83;22.60;;;18.20;99.90;;;;;;5106049;28;20185;-89
2021/09/12 07:13:55;;;;;;;38.37;22.90;;;18.20;99.90;;;;;;5098996;28;20421;-89
2021/09/12 07:16:21;;;;;;;43.07;22.30;;;18.30;99.90;;;;;;5097827;28;20208;-89
2021/09/12 07:18:47;;;;;;;37.40;22.93;;;18.30;99.90;;;;;;5095947;28;20164;-90
2021/09/12 07:21:13;;;;;;;40.57;24.10;;;18.30;99.90;;;;;;5091063;28;20191;-90
2021/09/12 07:23:38;;;;;;;38.87;23.57;;;18.20;99.90;;;;;;5109087;28;20178;-89
2021/09/12 07:26:04;;;;;;;42.33;23.93;;;18.20;99.90;;;;;;5098996;28;20199;-89
2021/09/12 07:28:30;;;;;;;40.80;24.63;;;18.20;99.90;;;;;;5096714;28;20205;-89
2021/09/12 07:30:56;;;;;;;38.83;23.50;;;18.30;99.90;;;;;;5092091;28;20188;-90
2021/09/12 07:33:22;;;;;;;44.37;24.97;;;18.30;99.90;;;;;;5089357;28;20438;-89
2021/09/12 07:35:47;;;;;;;41.90;24.37;;;18.40;99.90;;;;;;5095577;28;20180;-89
2021/09/12 07:38:13;;;;;;;40.27;23.00;;;18.30;99.90;;;;;;5096018;28;20188;-89
2021/09/12 07:40:39;;;;;;;37.60;21.10;;;18.40;99.90;;;;;;5091163;28;20236;-89
2021/09/12 07:43:05;;;;;;;41.23;22.83;;;18.30;99.90;;;;;;5089548;28;20924;-89
2021/09/12 07:45:30;;;;;;;40.57;21.83;;;18.50;99.90;;;;;;5096099;28;20208;-89
2021/09/12 07:47:56;;;;;;;29.77;19.70;;;18.50;99.90;;;;;;5084989;28;20252;-89
2021/09/12 07:50:22;;;;;;;34.03;21.73;;;18.50;99.90;;;;;;5087519;28;20177;-90
2021/09/12 07:52:47;;;;;;;40.70;23.20;;;18.60;99.90;;;;;;5090699;28;20224;-89
2021/09/12 07:55:15;;;;;;;40.97;22.07;;;18.60;99.90;;;;;;5085181;28;20423;-90
2021/09/12 07:57:41;;;;;;;41.53;22.97;;;18.50;99.90;;;;;;5086915;28;20177;-90
2021/09/12 08:00:13;;;;;;;40.87;24.00;;;18.40;99.90;;;;;;5089417;28;20414;-89
2021/09/12 08:02:40;;;;;;;38.97;24.13;;;18.50;99.90;;;;;;5090247;28;20435;-91
2021/09/12 08:05:06;;;;;;;42.70;23.23;;;18.50;99.90;;;;;;5076875;28;20436;-88
2021/09/12 08:07:32;;;;;;;38.90;21.87;;;18.50;99.90;;;;;;5084407;28;20431;-89
2021/09/12 08:09:59;;;;;;;33.10;20.30;;;18.40;99.90;;;;;;5078929;28;20438;-89
2021/09/12 08:12:25;;;;;;;38.17;21.80;;;18.40;99.90;;;;;;5082175;28;20225;-90
2021/09/12 08:14:50;;;;;;;31.13;20.70;;;18.40;99.90;;;;;;5090812;28;20429;-89
2021/09/12 08:17:16;;;;;;;34.73;21.47;;;18.40;99.90;;;;;;5088765;28;20189;-90
2021/09/12 08:19:42;;;;;;;35.70;22.33;;;18.50;99.90;;;;;;5091706;28;20204;-89
2021/09/12 08:22:07;;;;;;;29.57;19.13;;;18.50;99.90;;;;;;5093582;28;20176;-90
2021/09/12 08:24:33;;;;;;;34.00;20.40;;;18.60;99.90;;;;;;5099556;28;20199;-90
2021/09/12 08:26:59;;;;;;;36.50;20.73;;;18.60;99.90;;;;;;5090899;28;20664;-89
2021/09/12 08:29:25;;;;;;;33.90;19.57;;;18.70;99.90;;;;;;5088554;28;20181;-89
2021/09/12 08:31:50;;;;;;;28.53;20.27;;;18.90;99.90;;;;;;5092397;28;20503;-89
2021/09/12 08:34:17;;;;;;;28.43;17.77;;;19.10;99.90;;;;;;5091104;28;20172;-92
2021/09/12 08:36:43;;;;;;;24.57;18.17;;;19.20;99.90;;;;;;5097732;28;20169;-89
2021/09/12 08:39:09;;;;;;;27.30;17.60;;;19.30;99.90;;;;;;5094784;28;20414;-89
2021/09/12 08:41:35;;;;;;;23.83;17.77;;;19.40;99.90;;;;;;5090608;28;20967;-89
2021/09/12 08:44:01;;;;;;;27.50;20.83;;;19.50;99.90;;;;;;5093291;28;20566;-89
2021/09/12 08:46:27;;;;;;;27.73;18.50;;;19.50;99.90;;;;;;5090099;28;20470;-88
2021/09/12 08:48:53;;;;;;;21.67;16.67;;;19.60;99.90;;;;;;5086005;28;20428;-89
2021/09/12 08:51:19;;;;;;;28.80;19.10;;;19.50;99.90;;;;;;5078800;28;20403;-90
2021/09/12 08:53:45;;;;;;;25.87;19.00;;;19.30;99.90;;;;;;5076653;28;20181;-88
2021/09/12 08:56:10;;;;;;;31.53;18.90;;;19.20;99.90;;;;;;5088137;28;20167;-89
2021/09/12 08:58:36;;;;;;;23.50;16.60;;;19.20;99.90;;;;;;5078758;28;20259;-89
2021/09/12 09:01:02;;;;;;;28.27;17.50;;;19.10;99.90;;;;;;5083608;28;20188;-89
2021/09/12 09:03:39;;;;;;;31.37;18.87;;;19.20;99.90;;;;;;5089932;28;20176;-90
2021/09/12 09:06:17;;;;;;;23.33;18.20;;;19.10;99.90;;;;;;5089754;28;20219;-90
2021/09/12 09:09:09;;;;;;;23.73;18.00;;;19.00;99.90;;;;;;5081862;28;20414;-90
2021/09/12 09:11:37;;;;;;;21.60;16.60;;;19.00;99.90;;;;;;5089525;28;20444;-90
2021/09/12 09:14:23;;;;;;;20.00;16.90;;;19.10;99.90;;;;;;5092412;28;20451;-90
2021/09/12 09:16:51;;;;;;;21.77;16.00;;;19.20;99.90;;;;;;5090162;28;20447;-89
2021/09/12 09:19:17;;;;;;;22.20;18.10;;;19.20;99.90;;;;;;5093750;28;20417;-90
2021/09/12 09:21:49;;;;;;;24.33;17.10;;;19.10;99.90;;;;;;5092096;28;20454;-90
2021/09/12 09:25:03;;;;;;;24.67;17.73;;;19.20;99.90;;;;;;5101840;28;20418;-90
2021/09/12 09:27:29;;;;;;;24.13;17.53;;;19.30;99.90;;;;;;5082214;28;20435;-90
2021/09/12 09:29:55;;;;;;;21.40;17.67;;;19.50;99.90;;;;;;5090846;28;20452;-89
2021/09/12 09:32:22;;;;;;;25.40;17.70;;;19.60;99.90;;;;;;5094929;28;20169;-89
2021/09/12 09:34:47;;;;;;;28.00;17.23;;;19.70;99.90;;;;;;5092558;28;20441;-89
2021/09/12 09:37:14;;;;;;;22.03;16.40;;;19.80;99.90;;;;;;5094261;28;20424;-89
2021/09/12 09:39:46;;;;;;;27.27;20.03;;;19.90;99.90;;;;;;5106464;28;20175;-89
2021/09/12 09:42:34;;;;;;;29.50;18.53;;;20.00;99.90;;;;;;5098447;28;20435;-90
2021/09/12 09:45:02;;;;;;;26.07;19.53;;;19.90;99.90;;;;;;5087103;28;20423;-90
2021/09/12 09:47:28;;;;;;;24.70;17.43;;;19.80;99.90;;;;;;5094993;28;20434;-90
2021/09/12 09:50:06;;;;;;;26.07;19.30;;;19.90;99.90;;;;;;5086947;28;20447;-90
2021/09/12 09:52:33;;;;;;;22.57;17.07;;;19.90;99.90;;;;;;5086976;28;20422;-90
2021/09/12 09:54:59;;;;;;;28.23;18.83;;;20.00;99.90;;;;;;5102774;28;20431;-88
2021/09/12 09:57:25;;;;;;;18.40;13.80;;;20.00;99.90;;;;;;5086612;28;20434;-89
2021/09/12 09:59:52;;;;;;;28.20;18.00;;;20.00;99.90;;;;;;5081866;28;20423;-89
2021/09/12 10:02:19;;;;;;;24.83;17.70;;;20.00;99.90;;;;;;5086889;28;20532;-89
2021/09/12 10:04:45;;;;;;;24.83;19.37;;;19.90;99.90;;;;;;5085672;28;20427;-90
2021/09/12 10:07:12;;;;;;;23.07;17.73;;;19.90;99.90;;;;;;5089168;28;20523;-89
2021/09/12 10:09:38;;;;;;;24.97;17.50;;;20.10;99.90;;;;;;5095854;28;20168;-89
2021/09/12 10:12:08;;;;;;;17.73;15.00;;;20.30;99.90;;;;;;5078481;28;20423;-88
2021/09/12 10:14:54;;;;;;;23.43;16.70;;;20.40;99.90;;;;;;5071798;28;20480;-88
2021/09/12 10:17:21;;;;;;;26.17;16.20;;;20.60;99.90;;;;;;5074009;28;20438;-88
2021/09/12 10:19:48;;;;;;;16.00;13.67;;;20.80;99.90;;;;;;5084536;28;20429;-85
2021/09/12 10:22:19;;;;;;;16.70;13.47;;;20.60;99.90;;;;;;5073835;28;20480;-86
2021/09/12 10:25:00;;;;;;;19.87;13.90;;;20.50;99.90;;;;;;5071629;28;20454;-86
2021/09/12 10:27:57;;;;;;;16.93;13.33;;;20.30;99.90;;;;;;5068953;28;20463;-86
2021/09/12 10:30:29;;;;;;;19.80;13.37;;;20.10;99.90;;;;;;5089509;28;20429;-86
2021/09/12 10:33:07;;;;;;;16.80;13.80;;;20.00;99.90;;;;;;5073250;28;20414;-86
2021/09/12 10:35:37;;;;;;;17.67;14.00;;;19.90;99.90;;;;;;5072699;28;20508;-86
2021/09/12 10:38:08;;;;;;;18.27;12.50;;;19.90;99.90;;;;;;5067349;28;20584;-86
2021/09/12 10:40:48;;;;;;;14.90;13.20;;;19.90;99.90;;;;;;5066383;28;20404;-87
2021/09/12 10:43:35;;;;;;;22.70;15.47;;;19.90;99.90;;;;;;5070757;28;20426;-86
2021/09/12 10:46:03;;;;;;;20.10;16.67;;;19.90;99.90;;;;;;5067707;28;20446;-86
2021/09/12 10:48:38;;;;;;;18.90;14.37;;;20.00;99.90;;;;;;5065197;28;20420;-87
2021/09/12 10:51:06;;;;;;;20.43;15.67;;;20.10;99.90;;;;;;5074462;28;20879;-86
2021/09/12 10:53:44;;;;;;;16.20;14.43;;;20.10;99.90;;;;;;5086226;28;20516;-86
2021/09/12 10:56:32;;;;;;;24.40;16.90;;;20.10;99.90;;;;;;5081394;28;20446;-87
2021/09/12 10:59:01;;;;;;;19.67;15.17;;;20.30;99.90;;;;;;5077935;28;20433;-86
2021/09/12 11:01:31;;;;;;;18.80;14.70;;;20.40;99.90;;;;;;5077227;28;20430;-86
2021/09/12 11:04:01;;;;;;;18.67;14.30;;;20.50;99.90;;;;;;5068854;28;20427;-86
2021/09/12 11:06:34;;;;;;;17.30;14.03;;;20.90;99.90;;;;;;5071132;28;20451;-87
2021/09/12 11:09:03;;;;;;;15.67;13.43;;;21.20;99.90;;;;;;5067276;28;20850;-87
2021/09/12 11:11:29;;;;;;;19.10;13.70;;;21.40;99.90;;;;;;5048512;28;20440;-87
2021/09/12 11:13:56;;;;;;;14.20;12.10;;;21.50;99.90;;;;;;5067127;28;20422;-87
2021/09/12 11:16:24;;;;;;;19.20;14.43;;;21.50;99.90;;;;;;5069657;28;20515;-87
2021/09/12 11:18:52;;;;;;;17.23;12.83;;;21.30;99.90;;;;;;5064238;28;20442;-86
2021/09/12 11:21:38;;;;;;;17.20;14.00;;;21.10;99.90;;;;;;5061202;28;20529;-86
2021/09/12 11:24:13;;;;;;;16.37;13.87;;;20.90;99.90;;;;;;5062737;28;20428;-85
2021/09/12 11:26:41;;;;;;;18.33;15.10;;;20.80;99.90;;;;;;5062503;28;21178;-86
2021/09/12 11:29:13;;;;;;;19.40;12.83;;;20.60;99.90;;;;;;5085801;28;20426;-86
2021/09/12 11:31:42;;;;;;;19.57;13.07;;;20.60;99.90;;;;;;5062918;28;20429;-86
2021/09/12 11:34:09;;;;;;;23.70;15.70;;;20.70;99.90;;;;;;5070163;28;20428;-86
2021/09/12 11:36:46;;;;;;;17.43;15.10;;;20.70;99.90;;;;;;5070039;28;20919;-86
2021/09/12 11:39:14;;;;;;;15.33;13.57;;;20.70;99.90;;;;;;5068364;28;20416;-86
2021/09/12 11:41:41;;;;;;;22.63;13.93;;;20.70;99.90;;;;;;5063809;28;20414;-86
2021/09/12 11:44:08;;;;;;;14.90;11.53;;;20.80;99.90;;;;;;5077892;22;20583;-71
2021/09/12 11:46:34;;;;;;;16.93;11.80;;;20.90;99.90;;;;;;5043289;28;20451;-71
2021/09/12 11:49:03;;;;;;;17.20;12.33;;;21.10;99.90;;;;;;5056769;28;20453;-75
2021/09/12 11:51:40;;;;;;;15.67;12.13;;;21.10;99.90;;;;;;5058216;28;20429;-74
2021/09/12 11:54:08;;;;;;;15.47;11.97;;;21.30;99.90;;;;;;5066120;28;20451;-74
2021/09/12 11:56:34;;;;;;;14.77;12.80;;;21.40;99.90;;;;;;5068383;28;20458;-75
2021/09/12 11:59:02;;;;;;;16.20;11.77;;;21.50;99.90;;;;;;5070074;28;20419;-75
2021/09/12 12:01:30;;;;;;;14.60;11.30;;;21.40;99.90;;;;;;5065971;28;20480;-75
2021/09/12 12:03:57;;;;;;;21.40;12.80;;;21.30;99.90;;;;;;5071699;28;20455;-75
2021/09/12 12:06:23;;;;;;;13.80;10.67;;;21.40;99.90;;;;;;5066529;28;20448;-76
2021/09/12 12:09:05;;;;;;;14.13;11.03;;;21.60;99.90;;;;;;5064223;28;20487;-75
2021/09/12 12:11:32;;;;;;;16.97;13.57;;;21.80;99.90;;;;;;5066322;28;20435;-76
2021/09/12 12:13:58;;;;;;;16.77;13.27;;;22.00;99.90;;;;;;5060608;28;20815;-76
2021/09/12 12:16:23;;;;;;;19.13;14.23;;;22.00;99.90;;;;;;5065645;28;20436;-76
2021/09/12 12:19:04;;;;;;;15.20;13.60;;;21.90;99.90;;;;;;5068586;28;20181;-76
2021/09/12 12:21:33;;;;;;;21.40;13.30;;;21.90;99.90;;;;;;5062371;28;20182;-75
2021/09/12 12:24:07;;;;;;;17.57;14.27;;;21.90;99.90;;;;;;5064248;28;20460;-75
2021/09/12 12:26:39;;;;;;;12.43;11.20;;;21.90;99.90;;;;;;5061262;28;20787;-75